Time;durP1;ratioP1;P1;durP2;ratioP2;P2;SDS_P1;SDS_P2;PMS_P1;PMS_P2;Temp;Humidity;BMP_temperature;BMP_pressure;BME280_temperature;BME280_humidity;BME280_pressure;Samples;Min_cycle;Max_cycle;Signal;HPM_P1;HPM_P2
2023/01/30 00:00:34;;;;;;;33.00;18.67;;;5.20;99.90;;;;;;4930081;29;20281;-70
2023/01/30 00:03:00;;;;;;;38.13;19.93;;;5.20;99.90;;;;;;4930131;29;20442;-70
2023/01/30 00:05:25;;;;;;;34.50;19.60;;;5.10;99.90;;;;;;4932304;29;20437;-70
2023/01/30 00:07:51;;;;;;;36.60;18.00;;;5.20;99.90;;;;;;4915749;29;20192;-70
2023/01/30 00:10:17;;;;;;;35.00;18.57;;;5.20;99.90;;;;;;4917310;29;20184;-69
2023/01/30 00:12:42;;;;;;;38.10;19.23;;;5.20;99.90;;;;;;4918593;29;20598;-70
2023/01/30 00:15:08;;;;;;;36.90;18.87;;;5.20;99.90;;;;;;4920490;29;20195;-70
2023/01/30 00:17:34;;;;;;;37.97;21.03;;;5.20;99.90;;;;;;4921957;29;20254;-70
2023/01/30 00:19:59;;;;;;;37.30;20.63;;;5.10;99.90;;;;;;4925972;29;21001;-70
2023/01/30 00:22:25;;;;;;;43.57;20.17;;;5.20;99.90;;;;;;4929174;29;20306;-70
2023/01/30 00:24:50;;;;;;;34.47;19.50;;;5.40;99.90;;;;;;4931015;29;20194;-70
2023/01/30 00:27:16;;;;;;;39.13;20.03;;;5.40;99.90;;;;;;4931460;29;20191;-70
2023/01/30 00:29:42;;;;;;;40.10;20.27;;;5.30;99.90;;;;;;4923173;29;20180;-69
2023/01/30 00:32:07;;;;;;;31.30;18.07;;;5.30;99.90;;;;;;4920910;29;20707;-69
2023/01/30 00:34:33;;;;;;;36.13;18.83;;;5.50;99.90;;;;;;4919488;29;20562;-70
2023/01/30 00:36:59;;;;;;;34.27;18.83;;;5.50;99.90;;;;;;4920042;29;20267;-70
2023/01/30 00:39:25;;;;;;;35.57;19.40;;;5.50;99.90;;;;;;4921859;29;20685;-70
2023/01/30 00:47:19;;;;;;;35.23;18.10;;;5.50;99.90;;;;;;4926948;29;20441;-69
2023/01/30 00:49:44;;;;;;;34.73;18.40;;;5.60;99.90;;;;;;4927859;29;20518;-69
2023/01/30 00:52:10;;;;;;;37.47;20.10;;;5.70;99.90;;;;;;4925786;29;20651;-68
2023/01/30 00:54:35;;;;;;;32.77;18.50;;;5.60;99.90;;;;;;4932649;29;20734;-68
2023/01/30 00:57:01;;;;;;;35.87;19.60;;;5.70;99.90;;;;;;4934590;29;20179;-68
2023/01/30 00:59:27;;;;;;;44.00;22.57;;;5.70;99.90;;;;;;4925915;29;20278;-68
2023/01/30 01:01:52;;;;;;;31.77;18.07;;;5.70;99.90;;;;;;4903002;29;20211;-68
2023/01/30 01:04:18;;;;;;;37.20;19.93;;;5.70;99.90;;;;;;4920512;29;20191;-69
2023/01/30 01:06:43;;;;;;;43.03;21.10;;;5.60;99.90;;;;;;4922306;29;20187;-68
2023/01/30 01:09:09;;;;;;;36.33;19.43;;;5.60;99.90;;;;;;4923901;29;20274;-68
2023/01/30 01:11:35;;;;;;;35.97;20.17;;;5.60;99.90;;;;;;4925338;29;20191;-68
2023/01/30 01:14:02;;;;;;;31.40;19.10;;;5.60;99.90;;;;;;4930232;29;20227;-68
2023/01/30 01:16:29;;;;;;;35.00;19.33;;;5.40;99.90;;;;;;4928337;29;20435;-68
2023/01/30 01:18:54;;;;;;;35.30;19.30;;;5.50;99.90;;;;;;4926741;29;20442;-68
2023/01/30 01:21:21;;;;;;;38.40;20.33;;;5.50;99.90;;;;;;4925228;29;20839;-72
2023/01/30 01:23:51;;;;;;;33.93;19.30;;;5.50;99.90;;;;;;4923574;29;20608;-72
2023/01/30 01:26:17;;;;;;;39.03;20.97;;;5.50;99.90;;;;;;4921855;29;20420;-72
2023/01/30 01:28:43;;;;;;;38.00;20.70;;;5.70;99.90;;;;;;4920073;29;20811;-72
2023/01/30 01:31:13;;;;;;;35.87;19.07;;;5.70;99.90;;;;;;4919127;29;20480;-71
2023/01/30 01:33:39;;;;;;;34.70;19.17;;;5.70;99.90;;;;;;4921444;29;20220;-72
2023/01/30 01:36:05;;;;;;;41.20;19.80;;;5.80;99.90;;;;;;4922930;29;20442;-72
2023/01/30 01:38:31;;;;;;;34.57;18.93;;;5.70;99.90;;;;;;4924729;29;20246;-72
2023/01/30 01:41:04;;;;;;;36.17;18.50;;;5.70;99.90;;;;;;4926276;29;20841;-69
2023/01/30 01:43:33;;;;;;;40.67;19.83;;;5.70;99.90;;;;;;4928101;29;20219;-69
2023/01/30 01:46:19;;;;;;;32.77;18.93;;;5.60;99.90;;;;;;4926416;29;20439;-68
2023/01/30 01:48:50;;;;;;;32.73;17.23;;;5.60;99.90;;;;;;4924541;29;20439;-68
2023/01/30 01:51:34;;;;;;;36.63;20.17;;;5.70;99.90;;;;;;4922667;29;20511;-67
2023/01/30 01:54:13;;;;;;;35.20;21.40;;;5.70;99.90;;;;;;4920896;29;20474;-68
2023/01/30 01:56:42;;;;;;;37.03;18.67;;;5.70;99.90;;;;;;4919093;29;20438;-68
2023/01/30 01:59:15;;;;;;;36.27;19.87;;;5.60;99.90;;;;;;4919594;29;20427;-67
2023/01/30 02:01:41;;;;;;;27.77;18.97;;;5.60;99.90;;;;;;4931198;29;20438;-68
2023/01/30 02:04:09;;;;;;;40.30;19.40;;;5.60;99.90;;;;;;4932490;29;20443;-68
2023/01/30 02:06:37;;;;;;;28.57;17.97;;;5.70;99.90;;;;;;4931113;29;20191;-67
2023/01/30 02:09:06;;;;;;;33.13;18.03;;;5.70;99.90;;;;;;4929086;29;20440;-68
2023/01/30 02:11:48;;;;;;;33.97;16.00;;;5.70;99.90;;;;;;4927540;29;20444;-68
2023/01/30 02:14:14;;;;;;;27.67;18.10;;;5.70;99.90;;;;;;4925597;29;20509;-68
2023/01/30 02:16:43;;;;;;;32.50;18.53;;;5.70;99.90;;;;;;4923568;29;21007;-70
2023/01/30 02:19:32;;;;;;;36.17;19.47;;;5.70;99.90;;;;;;4922056;29;20432;-70
2023/01/30 02:22:39;;;;;;;33.23;19.50;;;5.70;99.90;;;;;;4920084;29;20815;-69
2023/01/30 02:25:46;;;;;;;31.10;19.00;;;5.70;99.90;;;;;;4922354;29;20434;-69
2023/01/30 02:28:29;;;;;;;33.83;18.20;;;5.80;99.90;;;;;;4876126;29;20449;-70
2023/01/30 02:31:25;;;;;;;37.80;19.30;;;5.80;99.90;;;;;;4927094;29;20526;-70
2023/01/30 02:34:15;;;;;;;34.03;18.90;;;5.90;99.90;;;;;;4928054;29;20565;-70
2023/01/30 02:37:02;;;;;;;33.87;19.07;;;5.90;99.90;;;;;;4908947;29;20490;-70
2023/01/30 02:40:05;;;;;;;34.07;19.67;;;5.90;99.90;;;;;;4927963;29;20440;-70
2023/01/30 02:42:41;;;;;;;30.83;19.10;;;6.00;99.90;;;;;;4923168;29;20502;-69
2023/01/30 02:45:18;;;;;;;31.80;18.17;;;6.00;99.90;;;;;;4913386;29;20572;-69
2023/01/30 02:47:57;;;;;;;33.10;20.33;;;5.90;99.90;;;;;;4933489;29;20447;-69
2023/01/30 02:50:26;;;;;;;37.53;21.50;;;6.00;99.90;;;;;;4935476;29;20595;-70
2023/01/30 02:52:53;;;;;;;31.60;19.80;;;6.00;99.90;;;;;;4935726;29;20477;-70
2023/01/30 02:55:21;;;;;;;38.70;21.77;;;6.00;99.90;;;;;;4934335;29;20431;-70
2023/01/30 02:57:47;;;;;;;40.30;22.00;;;6.00;99.90;;;;;;4918548;29;20792;-69
2023/01/30 03:00:20;;;;;;;35.40;21.47;;;6.00;99.90;;;;;;4930738;29;20443;-69
2023/01/30 03:03:08;;;;;;;39.43;22.00;;;6.10;99.90;;;;;;4912894;29;20217;-68
2023/01/30 03:05:57;;;;;;;29.63;18.97;;;6.00;99.90;;;;;;4926968;29;20439;-68
2023/01/30 03:08:28;;;;;;;37.37;20.53;;;6.10;99.90;;;;;;4912700;29;20803;-68
2023/01/30 03:10:59;;;;;;;36.33;20.03;;;6.10;99.90;;;;;;4930263;29;20439;-68
2023/01/30 03:13:48;;;;;;;35.93;18.43;;;6.10;99.90;;;;;;4931784;29;20568;-69
2023/01/30 03:16:36;;;;;;;36.53;22.23;;;6.10;99.90;;;;;;4933894;29;20521;-68
2023/01/30 03:19:07;;;;;;;38.90;19.90;;;6.10;99.90;;;;;;4918825;29;20986;-68
2023/01/30 03:21:33;;;;;;;35.87;18.90;;;6.20;99.90;;;;;;4934489;29;20501;-68
2023/01/30 03:23:58;;;;;;;36.27;20.53;;;6.10;99.90;;;;;;4932605;29;20442;-69
2023/01/30 03:26:29;;;;;;;30.20;18.27;;;6.10;99.90;;;;;;4930997;29;20650;-69
2023/01/30 03:28:56;;;;;;;43.23;20.33;;;6.10;99.90;;;;;;4929003;29;20667;-70
2023/01/30 03:31:21;;;;;;;31.30;19.17;;;6.20;99.90;;;;;;4927390;29;20847;-69
2023/01/30 03:33:47;;;;;;;38.00;20.87;;;6.20;99.90;;;;;;4925741;29;20483;-70
2023/01/30 03:36:13;;;;;;;28.60;17.30;;;6.30;99.90;;;;;;4924372;29;20192;-69
2023/01/30 03:38:38;;;;;;;27.63;18.13;;;6.30;99.90;;;;;;4922186;29;20226;-69
2023/01/30 05:32:42;;;;;;;20.33;13.30;;;6.70;99.90;;;;;;4883304;29;20953;-70
2023/01/30 05:35:08;;;;;;;15.83;12.10;;;6.80;99.90;;;;;;4897429;29;20448;-70
2023/01/30 05:37:34;;;;;;;24.30;14.20;;;6.80;99.90;;;;;;4898003;29;20224;-72
2023/01/30 05:39:59;;;;;;;20.23;14.10;;;6.80;99.90;;;;;;4894787;29;20244;-71
2023/01/30 05:42:25;;;;;;;18.47;11.63;;;6.80;99.90;;;;;;4893099;29;20180;-72
2023/01/30 05:44:50;;;;;;;18.70;12.77;;;6.80;99.90;;;;;;4891399;29;20197;-71
2023/01/30 05:47:16;;;;;;;22.13;14.63;;;6.90;99.90;;;;;;4888506;29;20197;-68
2023/01/30 05:49:41;;;;;;;20.20;12.87;;;6.90;99.90;;;;;;4889997;29;20201;-68
2023/01/30 05:52:07;;;;;;;23.27;14.07;;;6.80;99.90;;;;;;4890153;29;20653;-68
2023/01/30 05:54:33;;;;;;;19.67;12.97;;;6.90;99.90;;;;;;4891847;29;20189;-68
2023/01/30 05:56:59;;;;;;;18.57;12.07;;;6.90;99.90;;;;;;4876816;29;20187;-68
2023/01/30 05:59:24;;;;;;;20.70;12.33;;;6.80;99.90;;;;;;4892105;29;20437;-68
2023/01/30 06:01:50;;;;;;;20.00;14.47;;;6.80;99.90;;;;;;4893492;29;20199;-68
2023/01/30 06:04:15;;;;;;;18.33;11.73;;;6.90;99.90;;;;;;4897008;29;20192;-68
2023/01/30 06:06:41;;;;;;;19.90;12.37;;;7.00;99.90;;;;;;4895429;29;20546;-68
2023/01/30 06:09:09;;;;;;;25.20;15.17;;;7.00;99.90;;;;;;4891753;29;20603;-70
2023/01/30 06:11:34;;;;;;;20.13;13.93;;;7.00;99.90;;;;;;4884889;29;20216;-69
2023/01/30 06:14:00;;;;;;;16.90;13.30;;;7.00;99.90;;;;;;4886030;29;20517;-69
2023/01/30 06:16:25;;;;;;;25.53;17.27;;;6.90;99.90;;;;;;4887682;29;20701;-71
2023/01/30 06:18:51;;;;;;;24.47;15.40;;;6.90;99.90;;;;;;4887411;29;20641;-70
2023/01/30 06:21:16;;;;;;;20.97;15.37;;;7.00;99.90;;;;;;4884889;29;20196;-71
2023/01/30 06:23:42;;;;;;;25.10;16.13;;;7.10;99.90;;;;;;4883158;29;20645;-70
2023/01/30 06:26:08;;;;;;;24.33;16.17;;;7.00;99.90;;;;;;4881592;29;20193;-72
2023/01/30 06:28:34;;;;;;;29.23;17.60;;;7.20;99.90;;;;;;4879620;29;20193;-72
2023/01/30 06:31:00;;;;;;;32.53;18.03;;;7.10;99.90;;;;;;4843602;29;1044799;-72
2023/01/30 06:33:26;;;;;;;28.60;18.73;;;7.20;99.90;;;;;;4881039;29;20224;-69
2023/01/30 06:35:51;;;;;;;29.10;18.63;;;7.10;99.90;;;;;;4883015;29;20268;-69
2023/01/30 06:38:18;;;;;;;29.57;19.57;;;7.20;99.90;;;;;;4884289;29;20197;-70
2023/01/30 06:40:46;;;;;;;30.23;19.53;;;7.30;99.90;;;;;;4885656;29;21098;-71
2023/01/30 06:43:11;;;;;;;26.13;18.87;;;7.40;99.90;;;;;;4890434;29;20447;-71
2023/01/30 06:45:37;;;;;;;24.67;17.67;;;7.30;99.90;;;;;;4888335;29;20445;-70
2023/01/30 06:48:03;;;;;;;26.37;19.27;;;7.40;99.90;;;;;;4886223;29;20204;-70
2023/01/30 06:50:29;;;;;;;25.87;18.93;;;7.40;99.90;;;;;;4884693;29;20193;-71
2023/01/30 06:52:55;;;;;;;27.47;18.43;;;7.40;99.90;;;;;;4882806;29;20567;-70
2023/01/30 06:55:23;;;;;;;29.07;18.37;;;7.40;99.90;;;;;;4880170;29;20499;-70
2023/01/30 06:57:49;;;;;;;26.67;18.97;;;7.40;99.90;;;;;;4884185;29;20448;-70
2023/01/30 07:00:17;;;;;;;28.40;17.03;;;7.60;99.90;;;;;;4895212;29;20492;-70
2023/01/30 07:02:43;;;;;;;26.50;16.80;;;7.50;99.90;;;;;;4884089;29;20196;-70
2023/01/30 07:05:10;;;;;;;28.20;16.20;;;7.60;99.90;;;;;;4885438;29;20445;-70
2023/01/30 07:07:36;;;;;;;25.83;17.83;;;7.70;99.90;;;;;;4890043;29;20436;-71
2023/01/30 07:10:03;;;;;;;27.20;18.70;;;7.60;99.90;;;;;;4889516;29;20444;-69
2023/01/30 07:12:28;;;;;;;30.00;18.10;;;7.70;99.90;;;;;;4888034;29;20472;-69
2023/01/30 07:14:54;;;;;;;27.90;19.00;;;7.60;99.90;;;;;;4886518;29;20444;-70
2023/01/30 07:17:20;;;;;;;26.17;18.50;;;7.60;99.90;;;;;;4884890;29;20275;-70
2023/01/30 07:19:46;;;;;;;24.37;16.70;;;7.60;99.90;;;;;;4866534;29;20189;-70
2023/01/30 07:22:13;;;;;;;25.93;18.53;;;7.60;99.90;;;;;;4891771;29;20452;-70
2023/01/30 07:24:38;;;;;;;25.57;17.27;;;7.60;99.90;;;;;;4889161;29;20680;-70
2023/01/30 07:27:08;;;;;;;25.13;16.17;;;7.70;99.90;;;;;;4880614;29;20529;-70
2023/01/30 07:29:34;;;;;;;41.70;19.20;;;7.80;99.90;;;;;;4881647;29;20196;-71
2023/01/30 07:32:00;;;;;;;35.23;18.27;;;7.80;99.90;;;;;;4883639;29;20481;-70
2023/01/30 07:34:26;;;;;;;26.87;18.83;;;7.80;99.90;;;;;;4868624;29;20500;-70
2023/01/30 07:36:52;;;;;;;28.90;16.47;;;7.80;99.90;;;;;;4887071;29;20197;-70
2023/01/30 07:39:17;;;;;;;26.80;18.47;;;7.80;99.90;;;;;;4888978;29;20192;-70
2023/01/30 07:41:43;;;;;;;27.37;19.70;;;7.70;99.90;;;;;;4890177;29;20247;-70
2023/01/30 07:44:08;;;;;;;23.67;15.33;;;7.80;99.90;;;;;;4891857;29;20189;-70
2023/01/30 07:46:34;;;;;;;24.70;17.07;;;7.80;99.90;;;;;;4893574;29;20188;-70
2023/01/30 07:49:04;;;;;;;25.73;17.70;;;7.80;99.90;;;;;;4895432;29;20263;-70
2023/01/30 07:51:30;;;;;;;23.77;15.47;;;7.80;99.90;;;;;;4896930;29;20192;-70
2023/01/30 07:53:56;;;;;;;31.00;15.37;;;7.80;99.90;;;;;;4896501;29;20579;-70
2023/01/30 07:56:21;;;;;;;25.87;14.57;;;7.80;99.90;;;;;;4894953;29;20496;-70
2023/01/30 07:58:48;;;;;;;24.30;15.80;;;7.90;99.90;;;;;;4893620;29;20257;-70
2023/01/30 08:01:14;;;;;;;25.87;12.73;;;8.00;99.90;;;;;;4891625;29;20184;-70
2023/01/30 08:03:40;;;;;;;25.70;12.77;;;8.00;99.90;;;;;;4890141;29;20442;-70
2023/01/30 08:06:06;;;;;;;40.80;13.03;;;7.90;99.90;;;;;;4888171;29;20883;-70
2023/01/30 08:08:32;;;;;;;24.03;10.30;;;8.00;99.90;;;;;;4886723;29;20445;-71
2023/01/30 08:10:57;;;;;;;13.10;7.60;;;8.10;99.90;;;;;;4885212;29;20957;-71
2023/01/30 08:13:23;;;;;;;12.40;7.63;;;8.10;99.90;;;;;;4883247;29;20225;-72
2023/01/30 08:15:49;;;;;;;11.60;6.97;;;8.00;99.90;;;;;;4881590;29;20196;-72
2023/01/30 08:18:15;;;;;;;15.30;7.40;;;8.00;99.90;;;;;;4880073;29;20283;-72
2023/01/30 08:20:41;;;;;;;16.20;7.57;;;8.00;99.90;;;;;;4879252;29;20535;-72
2023/01/30 08:23:07;;;;;;;14.43;6.83;;;8.00;99.90;;;;;;4881092;29;20215;-72
2023/01/30 08:25:34;;;;;;;17.70;8.00;;;8.10;99.90;;;;;;4865748;29;20457;-72
2023/01/30 08:28:00;;;;;;;14.47;6.33;;;8.20;99.90;;;;;;4895309;29;20452;-72
2023/01/30 08:30:27;;;;;;;15.20;6.00;;;8.10;99.90;;;;;;4895247;29;20497;-72
2023/01/30 08:32:52;;;;;;;11.57;4.63;;;8.00;99.90;;;;;;4896418;29;20483;-71
2023/01/30 08:35:18;;;;;;;16.53;6.00;;;8.10;99.90;;;;;;4896667;29;20432;-72
2023/01/30 08:37:44;;;;;;;11.83;4.60;;;8.10;99.90;;;;;;4893746;29;20241;-72
2023/01/30 08:40:10;;;;;;;17.03;4.77;;;8.20;99.90;;;;;;4893615;29;20197;-72
2023/01/30 08:42:35;;;;;;;13.53;3.77;;;8.30;99.90;;;;;;4897514;29;20184;-70
2023/01/30 08:45:01;;;;;;;10.97;4.50;;;8.20;99.90;;;;;;4899070;29;20538;-71
2023/01/30 08:47:26;;;;;;;12.13;5.37;;;8.30;99.90;;;;;;4890243;29;20193;-70
2023/01/30 08:49:52;;;;;;;11.53;4.90;;;8.20;99.90;;;;;;4883993;29;20227;-71
2023/01/30 08:52:18;;;;;;;13.77;3.60;;;8.30;99.90;;;;;;4885492;29;20216;-70
2023/01/30 08:54:44;;;;;;;7.95;4.38;;;8.30;99.90;;;;;;4886777;29;20452;-71
2023/01/30 08:57:10;;;;;;;14.53;5.47;;;8.30;99.90;;;;;;4887693;29;20894;-70
2023/01/30 08:59:35;;;;;;;8.77;4.70;;;8.40;99.90;;;;;;4880256;29;20445;-70
2023/01/30 09:02:01;;;;;;;16.20;3.67;;;8.40;99.90;;;;;;4892004;29;20217;-70
2023/01/30 09:04:30;;;;;;;10.63;3.97;;;8.50;99.90;;;;;;4893595;29;20200;-70
2023/01/30 09:06:55;;;;;;;14.87;3.73;;;8.40;99.90;;;;;;4895001;29;20188;-70
2023/01/30 09:09:21;;;;;;;11.63;3.00;;;8.40;99.90;;;;;;4896577;29;20444;-70
2023/01/30 09:11:49;;;;;;;10.90;3.10;;;8.40;99.90;;;;;;4883298;29;20205;-70
2023/01/30 09:14:18;;;;;;;7.80;3.20;;;8.60;99.90;;;;;;4882293;29;20228;-70
2023/01/30 09:16:54;;;;;;;14.10;3.33;;;8.70;99.90;;;;;;4882859;29;20445;-70
2023/01/30 09:19:21;;;;;;;18.83;5.03;;;8.50;99.90;;;;;;4884406;29;20529;-70
2023/01/30 09:21:49;;;;;;;7.50;3.10;;;8.30;99.90;;;;;;4895258;29;20821;-69
2023/01/30 09:24:14;;;;;;;13.20;3.30;;;8.30;99.90;;;;;;4893322;29;20449;-70
2023/01/30 09:26:43;;;;;;;15.40;3.50;;;8.40;99.90;;;;;;4891709;29;20767;-70
2023/01/30 09:29:10;;;;;;;15.67;4.20;;;8.30;99.90;;;;;;4881965;29;20195;-70
2023/01/30 09:31:35;;;;;;;15.27;3.43;;;8.30;99.90;;;;;;4892618;29;20825;-70
2023/01/30 09:34:01;;;;;;;15.40;3.90;;;8.20;99.90;;;;;;4894363;29;20483;-70
2023/01/30 09:36:26;;;;;;;12.40;4.33;;;8.20;99.90;;;;;;4895472;29;20184;-70
2023/01/30 09:38:52;;;;;;;23.77;4.40;;;8.40;99.90;;;;;;4897611;29;20584;-70
2023/01/30 09:41:36;;;;;;;13.03;4.83;;;8.30;99.90;;;;;;4899552;29;20219;-70
2023/01/30 09:44:13;;;;;;;8.60;3.83;;;8.40;99.90;;;;;;4882641;29;20188;-70
2023/01/30 09:46:48;;;;;;;16.67;4.07;;;8.20;99.90;;;;;;4885368;29;20992;-70
2023/01/30 09:49:24;;;;;;;13.93;3.73;;;8.20;99.90;;;;;;4886059;29;20447;-71
2023/01/30 09:52:10;;;;;;;15.50;4.43;;;8.20;99.90;;;;;;4892483;29;20439;-70
2023/01/30 09:54:41;;;;;;;15.40;3.97;;;8.30;99.90;;;;;;4888202;29;20453;-70
2023/01/30 09:57:06;;;;;;;15.37;3.70;;;8.30;99.90;;;;;;4891081;29;20975;-70
2023/01/30 09:59:44;;;;;;;9.97;4.57;;;8.20;99.90;;;;;;4892874;29;20501;-69
2023/01/30 10:02:47;;;;;;;15.63;3.37;;;8.20;99.90;;;;;;4894519;29;20184;-71
2023/01/30 10:05:13;;;;;;;11.70;3.50;;;8.30;99.90;;;;;;4883542;29;20441;-70
2023/01/30 10:07:53;;;;;;;17.07;4.10;;;8.30;99.90;;;;;;4881678;29;20964;-70
2023/01/30 10:10:36;;;;;;;12.83;3.73;;;8.10;99.90;;;;;;4894939;29;20480;-70
2023/01/30 10:13:09;;;;;;;13.43;4.80;;;8.20;99.90;;;;;;4896729;29;20822;-71
2023/01/30 10:15:59;;;;;;;11.13;3.70;;;8.20;99.90;;;;;;4878596;29;20446;-71
2023/01/30 10:19:16;;;;;;;23.33;3.83;;;8.30;99.90;;;;;;4887019;29;20804;-71
2023/01/30 10:21:51;;;;;;;14.30;4.60;;;8.20;99.90;;;;;;4887956;29;20493;-71
2023/01/30 10:24:41;;;;;;;13.87;3.10;;;8.10;99.90;;;;;;4890073;29;20461;-72
2023/01/30 10:27:13;;;;;;;22.87;5.00;;;8.10;99.90;;;;;;4875020;29;20449;-72
2023/01/30 10:29:42;;;;;;;10.07;3.77;;;8.20;99.90;;;;;;4893216;29;21005;-70
2023/01/30 10:32:17;;;;;;;15.47;4.43;;;8.40;99.90;;;;;;4894894;29;20551;-70
2023/01/30 10:34:49;;;;;;;17.70;3.70;;;8.30;99.90;;;;;;4880534;29;20448;-70
2023/01/30 10:37:31;;;;;;;11.37;3.50;;;8.40;99.90;;;;;;4879471;29;20441;-71
2023/01/30 10:40:13;;;;;;;13.47;3.87;;;8.20;99.90;;;;;;4892774;29;20436;-71
2023/01/30 10:42:48;;;;;;;19.17;3.63;;;8.20;99.90;;;;;;4893565;29;20475;-71
2023/01/30 10:45:20;;;;;;;7.10;3.00;;;8.30;99.90;;;;;;4884901;29;20432;-72
2023/01/30 10:48:11;;;;;;;9.00;3.83;;;8.20;99.90;;;;;;4886501;29;20435;-72
2023/01/30 10:51:04;;;;;;;22.87;5.20;;;8.40;99.90;;;;;;4887874;29;20952;-72
2023/01/30 10:53:49;;;;;;;15.77;4.27;;;8.40;99.90;;;;;;4890339;29;20541;-72
2023/01/30 10:56:28;;;;;;;22.30;3.90;;;8.30;99.90;;;;;;4882530;29;20922;-72
2023/01/30 10:59:06;;;;;;;11.53;4.40;;;8.20;99.90;;;;;;4881609;29;20531;-72
2023/01/30 11:01:49;;;;;;;28.97;4.50;;;8.30;99.90;;;;;;4880878;29;20441;-72
2023/01/30 11:04:30;;;;;;;10.53;3.17;;;8.40;99.90;;;;;;4878881;29;20433;-72
2023/01/30 11:06:58;;;;;;;17.17;4.20;;;8.20;99.90;;;;;;4895566;29;20444;-70
2023/01/30 11:09:23;;;;;;;16.30;4.33;;;8.30;99.90;;;;;;4882723;29;20574;-70
2023/01/30 11:11:52;;;;;;;11.67;3.53;;;8.30;99.90;;;;;;4884303;29;20930;-70
2023/01/30 11:14:17;;;;;;;15.57;3.30;;;8.20;99.90;;;;;;4885895;29;20233;-70
2023/01/30 11:16:54;;;;;;;21.63;4.33;;;8.20;99.90;;;;;;4889521;29;20436;-71
2023/01/30 11:19:30;;;;;;;12.20;3.23;;;8.30;99.90;;;;;;4886865;29;20223;-71
2023/01/30 11:22:01;;;;;;;12.13;3.40;;;8.30;99.90;;;;;;4889767;29;20441;-71
2023/01/30 11:24:40;;;;;;;7.40;3.40;;;8.40;99.90;;;;;;4888520;29;20452;-71
2023/01/30 11:27:20;;;;;;;9.73;3.20;;;8.30;99.90;;;;;;4881289;29;20429;-71
2023/01/30 11:29:46;;;;;;;11.93;4.17;;;8.30;99.90;;;;;;4880054;29;20451;-71
2023/01/30 11:32:18;;;;;;;21.63;4.97;;;8.30;99.90;;;;;;4889582;29;20613;-72
2023/01/30 11:34:59;;;;;;;18.87;4.90;;;8.30;99.90;;;;;;4880912;29;20446;-71
2023/01/30 11:37:33;;;;;;;11.63;5.73;;;8.20;99.90;;;;;;4892685;29;20452;-70
2023/01/30 11:40:16;;;;;;;12.93;3.60;;;8.20;99.90;;;;;;4884475;29;20438;-70
2023/01/30 11:42:46;;;;;;;14.73;3.37;;;8.30;99.90;;;;;;4888978;29;20440;-70
2023/01/30 11:45:12;;;;;;;10.57;3.37;;;8.20;99.90;;;;;;4887182;29;20428;-70
2023/01/30 11:47:50;;;;;;;10.70;4.13;;;8.30;99.90;;;;;;4885480;29;20881;-71
2023/01/30 11:50:18;;;;;;;23.90;4.57;;;8.30;99.90;;;;;;4883780;29;20644;-72
2023/01/30 11:52:45;;;;;;;13.33;4.30;;;8.50;99.90;;;;;;4881989;29;20517;-72
2023/01/30 11:55:17;;;;;;;20.30;3.90;;;8.60;99.90;;;;;;4890534;29;20447;-72
2023/01/30 11:57:49;;;;;;;29.57;4.90;;;8.60;99.90;;;;;;4878711;29;20434;-70
2023/01/30 12:00:38;;;;;;;15.77;3.80;;;8.60;99.90;;;;;;4892122;29;20452;-69
2023/01/30 12:03:08;;;;;;;13.13;4.10;;;8.60;99.90;;;;;;4877398;29;20435;-70
2023/01/30 12:05:41;;;;;;;13.33;2.83;;;8.60;99.90;;;;;;4883264;29;20799;-71
2023/01/30 12:08:18;;;;;;;12.87;3.00;;;8.50;99.90;;;;;;4884453;29;20437;-71
2023/01/30 12:10:52;;;;;;;12.07;3.80;;;8.50;99.90;;;;;;4888579;29;20464;-69
2023/01/30 12:13:40;;;;;;;9.33;2.97;;;8.40;99.90;;;;;;4887263;29;20476;-70
2023/01/30 12:16:37;;;;;;;10.43;3.10;;;8.60;99.90;;;;;;4893648;29;20440;-70
2023/01/30 12:19:13;;;;;;;10.03;2.80;;;8.70;99.90;;;;;;4887268;29;20436;-70
2023/01/30 12:21:54;;;;;;;11.23;3.60;;;8.70;99.90;;;;;;4885229;29;20429;-70
2023/01/30 12:24:45;;;;;;;10.53;3.27;;;8.70;99.90;;;;;;4883320;29;20465;-70
2023/01/30 12:27:38;;;;;;;20.83;3.07;;;8.60;99.90;;;;;;4898860;29;20858;-70
2023/01/30 12:30:18;;;;;;;9.83;3.00;;;8.50;99.90;;;;;;4898747;29;20433;-70
2023/01/30 12:32:43;;;;;;;17.27;3.33;;;8.50;99.90;;;;;;4896207;29;20547;-70
2023/01/30 12:35:16;;;;;;;11.10;3.50;;;8.60;99.90;;;;;;4894539;29;20540;-69
2023/01/30 12:38:09;;;;;;;17.60;4.30;;;8.70;99.90;;;;;;4892966;29;20241;-70
2023/01/30 12:40:37;;;;;;;11.87;2.90;;;8.80;99.90;;;;;;4891660;29;20503;-70
2023/01/30 12:43:20;;;;;;;24.50;4.57;;;8.80;99.90;;;;;;4894152;29;20444;-69
2023/01/30 12:45:56;;;;;;;19.93;3.67;;;8.70;99.90;;;;;;4890105;29;20512;-70
2023/01/30 12:48:34;;;;;;;10.47;3.97;;;8.70;99.90;;;;;;4884778;29;20944;-70
2023/01/30 12:51:12;;;;;;;14.57;3.70;;;8.80;99.90;;;;;;4883446;29;20497;-70
2023/01/30 12:54:01;;;;;;;9.40;4.37;;;8.90;99.90;;;;;;4897419;29;20472;-70
2023/01/30 12:56:29;;;;;;;12.73;2.73;;;9.00;99.90;;;;;;4897606;29;20520;-70
2023/01/30 12:59:03;;;;;;;12.33;3.10;;;9.00;99.90;;;;;;4896546;29;20504;-70
2023/01/30 13:02:08;;;;;;;13.13;3.93;;;8.90;99.90;;;;;;4894849;29;20955;-71
2023/01/30 13:05:03;;;;;;;17.87;4.37;;;9.00;99.90;;;;;;4891864;29;20444;-71
2023/01/30 13:07:35;;;;;;;17.17;4.60;;;8.90;99.90;;;;;;4890720;29;20511;-72
2023/01/30 13:10:24;;;;;;;14.47;3.20;;;8.90;99.90;;;;;;4893376;29;20485;-71
2023/01/30 13:12:58;;;;;;;16.23;3.70;;;8.90;99.90;;;;;;4895626;29;20521;-71
2023/01/30 13:15:46;;;;;;;15.07;2.57;;;9.00;99.90;;;;;;4895672;29;20578;-72
2023/01/30 13:18:31;;;;;;;15.13;5.07;;;9.20;99.90;;;;;;4898084;29;20429;-71
2023/01/30 13:21:12;;;;;;;11.00;3.50;;;9.40;99.90;;;;;;4898574;29;20564;-73
2023/01/30 13:24:11;;;;;;;9.70;3.30;;;9.40;99.90;;;;;;4882983;29;20792;-73
2023/01/30 13:26:40;;;;;;;20.80;3.67;;;9.40;99.90;;;;;;4885226;29;20929;-72
2023/01/30 13:29:30;;;;;;;16.43;4.90;;;9.40;99.90;;;;;;4893532;29;20497;-74
2023/01/30 13:32:00;;;;;;;15.47;4.10;;;9.50;99.90;;;;;;4887900;29;20481;-73
2023/01/30 13:34:34;;;;;;;12.93;3.53;;;9.60;99.90;;;;;;4889518;29;20571;-73
2023/01/30 13:37:04;;;;;;;23.27;4.73;;;9.70;99.90;;;;;;4891340;29;20434;-73
2023/01/30 13:39:39;;;;;;;17.47;4.73;;;9.80;99.90;;;;;;4893172;29;20436;-71
2023/01/30 13:42:12;;;;;;;12.10;3.13;;;9.90;99.90;;;;;;4884320;29;20445;-71
2023/01/30 13:44:42;;;;;;;18.90;3.40;;;9.90;99.90;;;;;;4882227;29;20933;-71
2023/01/30 13:47:34;;;;;;;12.93;3.83;;;9.90;99.90;;;;;;4881093;29;20453;-71
2023/01/30 13:50:26;;;;;;;14.90;4.50;;;9.70;99.90;;;;;;4896056;29;20949;-71
2023/01/30 13:53:06;;;;;;;9.07;2.83;;;9.60;99.90;;;;;;4895246;29;20474;-71
2023/01/30 13:55:44;;;;;;;12.73;3.53;;;9.70;99.90;;;;;;4885183;29;20967;-72
2023/01/30 13:58:32;;;;;;;13.43;3.60;;;9.60;99.90;;;;;;4886912;29;20436;-72
2023/01/30 14:00:58;;;;;;;12.57;3.47;;;9.60;99.90;;;;;;4890098;29;20430;-72
2023/01/30 14:03:29;;;;;;;19.77;2.90;;;9.70;99.90;;;;;;4888193;29;20544;-73
2023/01/30 14:05:59;;;;;;;15.20;2.60;;;9.80;99.90;;;;;;4886132;29;20252;-72
2023/01/30 14:08:45;;;;;;;10.87;3.10;;;9.60;99.90;;;;;;4884424;29;20455;-72
2023/01/30 14:11:31;;;;;;;12.43;3.67;;;9.50;99.90;;;;;;4893622;29;20417;-71
2023/01/30 14:14:19;;;;;;;6.33;3.27;;;9.50;99.90;;;;;;4880438;29;20473;-72
2023/01/30 14:16:47;;;;;;;16.37;4.07;;;9.40;99.90;;;;;;4880575;29;20565;-71
2023/01/30 14:19:20;;;;;;;17.50;4.17;;;9.50;99.90;;;;;;4895755;29;20451;-71
2023/01/30 14:22:17;;;;;;;17.00;3.40;;;9.60;99.90;;;;;;4890148;29;20441;-71
2023/01/30 14:24:43;;;;;;;12.97;2.70;;;9.50;99.90;;;;;;4810403;29;20502;-71
2023/01/30 14:27:30;;;;;;;9.77;3.17;;;9.30;99.90;;;;;;4894695;29;20452;-72
2023/01/30 14:29:56;;;;;;;17.33;4.03;;;9.30;99.90;;;;;;4888149;29;20196;-71
2023/01/30 14:32:22;;;;;;;10.77;4.40;;;9.30;99.90;;;;;;4886174;29;20481;-72
2023/01/30 14:35:02;;;;;;;12.40;4.87;;;9.30;99.90;;;;;;4884590;29;20536;-72
2023/01/30 14:37:34;;;;;;;19.87;3.53;;;9.20;99.90;;;;;;4882858;29;20203;-72
2023/01/30 14:40:00;;;;;;;11.57;3.77;;;9.10;99.90;;;;;;4881185;29;20533;-71
2023/01/30 14:42:31;;;;;;;12.63;3.47;;;9.30;99.90;;;;;;4879983;29;20437;-71
2023/01/30 14:45:12;;;;;;;26.20;4.33;;;9.30;99.90;;;;;;4892967;29;20449;-72
2023/01/30 14:47:37;;;;;;;16.83;3.40;;;9.40;99.90;;;;;;4894425;29;20434;-73
2023/01/30 14:50:17;;;;;;;20.93;3.83;;;9.30;99.90;;;;;;4893073;29;20500;-74
2023/01/30 14:52:42;;;;;;;11.30;3.27;;;9.20;99.90;;;;;;4885923;29;20692;-71
2023/01/30 14:55:28;;;;;;;14.93;5.90;;;9.10;99.90;;;;;;4887699;29;20509;-71
2023/01/30 14:57:57;;;;;;;14.83;3.60;;;9.10;99.90;;;;;;4887356;29;20661;-72
2023/01/30 15:00:28;;;;;;;13.73;3.63;;;9.10;99.90;;;;;;4886294;29;20441;-71
2023/01/30 15:02:58;;;;;;;16.50;3.97;;;9.10;99.90;;;;;;4873002;29;20810;-71
2023/01/30 15:05:30;;;;;;;15.93;4.60;;;9.10;99.90;;;;;;4882648;29;20511;-71